createdAt,value
2023-02-14T00:00:28.269Z,8.49
2023-02-14T00:02:56.349Z,8.48
2023-02-14T00:05:22.912Z,8.46
2023-02-14T00:07:49.318Z,8.10
2023-02-14T00:10:15.895Z,8.40
2023-02-14T00:12:42.377Z,8.43
2023-02-14T00:15:22.244Z,8.42
2023-02-14T00:17:50.188Z,8.42
2023-02-14T00:20:16.883Z,8.36
2023-02-14T00:22:43.811Z,8.24
2023-02-14T00:25:10.416Z,8.34
2023-02-14T00:27:36.884Z,8.34
2023-02-14T00:30:03.984Z,8.37
2023-02-14T00:32:31.437Z,8.06
2023-02-14T00:34:57.846Z,8.34
2023-02-14T00:37:42.689Z,8.26
2023-02-14T00:40:09.318Z,8.30
2023-02-14T00:42:35.727Z,8.24
2023-02-14T00:45:02.316Z,8.11
2023-02-14T00:47:28.724Z,7.83
2023-02-14T00:49:55.182Z,8.24
2023-02-14T00:52:21.537Z,8.22
2023-02-14T00:54:47.911Z,8.25
2023-02-14T00:57:14.359Z,8.26
2023-02-14T00:59:40.718Z,8.08
2023-02-14T01:02:07.249Z,8.21
2023-02-14T01:04:33.768Z,8.26
2023-02-14T01:07:00.171Z,8.25
2023-02-14T01:09:26.648Z,8.20
2023-02-14T01:11:53.063Z,8.20
2023-02-14T01:14:19.690Z,8.16
2023-02-14T01:17:36.384Z,8.24
2023-02-14T01:20:03.053Z,8.03
2023-02-14T01:23:25.567Z,8.22
2023-02-14T01:26:47.958Z,8.21
2023-02-14T01:30:10.518Z,8.18
2023-02-14T01:33:33.470Z,8.18
2023-02-14T01:36:56.208Z,8.16
2023-02-14T01:40:18.816Z,8.14
2023-02-14T01:43:41.473Z,8.12
2023-02-14T01:47:04.345Z,8.12
2023-02-14T01:49:43.944Z,7.67
2023-02-14T01:52:21.734Z,8.07
2023-02-14T01:54:54.248Z,8.04
2023-02-14T01:57:23.017Z,8.03
2023-02-14T01:59:55.875Z,8.00
2023-02-14T02:02:25.339Z,7.99
2023-02-14T02:04:55.909Z,7.95
2023-02-14T02:07:26.189Z,7.88
2023-02-14T02:09:58.265Z,8.06
2023-02-14T02:12:24.890Z,7.83
2023-02-14T02:14:54.643Z,7.90
2023-02-14T02:17:33.258Z,7.88
2023-02-14T02:20:18.190Z,7.88
2023-02-14T02:23:02.868Z,7.82
2023-02-14T02:25:48.109Z,7.79
2023-02-14T02:28:23.835Z,7.78
2023-02-14T02:31:28.271Z,7.76
2023-02-14T02:34:20.777Z,7.74
2023-02-14T02:37:03.541Z,7.69
2023-02-14T02:39:43.903Z,7.66
2023-02-14T02:42:28.985Z,7.64
2023-02-14T02:45:21.728Z,7.49
2023-02-14T02:48:10.483Z,7.59
2023-02-14T02:51:04.533Z,7.52
2023-02-14T02:53:49.233Z,7.49
2023-02-14T02:56:49.613Z,7.49
2023-02-14T02:59:28.121Z,7.46
2023-02-14T03:02:13.638Z,7.40
2023-02-14T03:04:54.946Z,7.39
2023-02-14T03:07:37.467Z,7.38
2023-02-14T03:10:17.038Z,7.36
2023-02-14T03:13:05.360Z,7.33
2023-02-14T03:15:34.797Z,7.27
2023-02-14T03:18:50.666Z,7.28
2023-02-14T03:21:31.588Z,7.24
2023-02-14T03:24:19.715Z,6.90
2023-02-14T03:26:46.057Z,7.19
2023-02-14T03:29:31.495Z,7.20
2023-02-14T03:32:05.256Z,6.88
2023-02-14T03:34:38.144Z,7.04
2023-02-14T03:37:22.787Z,7.14
2023-02-14T03:40:13.584Z,7.07
2023-02-14T03:42:50.093Z,7.03
2023-02-14T03:45:28.999Z,7.07
2023-02-14T03:48:01.725Z,7.08
2023-02-14T03:50:30.712Z,7.07
2023-02-14T03:52:59.798Z,7.01
2023-02-14T03:55:46.464Z,7.02
2023-02-14T03:58:33.518Z,6.85
2023-02-14T04:01:06.349Z,6.98
2023-02-14T04:03:35.470Z,6.97
2023-02-14T04:06:02.029Z,7.01
2023-02-14T04:08:29.823Z,7.00
2023-02-14T04:10:59.093Z,6.61
2023-02-14T04:13:26.033Z,6.98
2023-02-14T04:15:52.555Z,6.97
2023-02-14T04:18:37.532Z,6.91
2023-02-14T04:21:04.205Z,6.94
2023-02-14T04:23:30.702Z,6.88
2023-02-14T04:25:57.090Z,6.93
2023-02-14T04:28:23.535Z,6.90
2023-02-14T04:30:49.989Z,6.93
2023-02-14T04:33:16.452Z,6.92
2023-02-14T04:35:42.947Z,6.93
2023-02-14T04:38:09.406Z,6.93
2023-02-14T04:40:35.823Z,6.93
2023-02-14T04:43:02.243Z,6.84
2023-02-14T04:45:28.655Z,6.95
2023-02-14T04:47:55.055Z,6.94
2023-02-14T04:50:23.392Z,6.95
2023-02-14T04:52:49.791Z,6.97
2023-02-14T04:55:16.433Z,6.97
2023-02-14T04:57:42.806Z,6.97
2023-02-14T05:00:10.252Z,6.92
2023-02-14T05:02:37.243Z,7.01
2023-02-14T05:05:03.913Z,7.02
2023-02-14T05:07:30.384Z,7.04
2023-02-14T05:09:56.853Z,7.05
2023-02-14T05:12:23.453Z,7.07
2023-02-14T05:14:49.871Z,7.09
2023-02-14T05:17:16.317Z,7.05
2023-02-14T05:19:42.801Z,6.88
2023-02-14T05:22:09.310Z,7.07
2023-02-14T05:24:35.667Z,7.03
2023-02-14T05:27:02.256Z,7.18
2023-02-14T05:29:28.693Z,7.06
2023-02-14T05:31:55.165Z,7.21
2023-02-14T05:34:21.914Z,7.22
2023-02-14T05:36:48.495Z,7.27
2023-02-14T05:39:14.972Z,7.03
2023-02-14T05:41:41.618Z,7.27
2023-02-14T05:44:08.049Z,7.23
2023-02-14T05:46:34.486Z,7.35
2023-02-14T05:49:01.315Z,7.36
2023-02-14T05:51:27.719Z,7.34
2023-02-14T05:53:54.119Z,7.39
2023-02-14T05:56:20.627Z,7.19
2023-02-14T05:58:47.128Z,7.39
2023-02-14T06:01:13.642Z,7.44
2023-02-14T06:03:40.619Z,7.45
2023-02-14T06:06:07.186Z,7.46
2023-02-14T06:08:33.594Z,7.45
2023-02-14T06:11:00.308Z,7.46
2023-02-14T06:13:26.953Z,7.28
2023-02-14T06:15:53.424Z,7.42
2023-02-14T06:18:19.893Z,7.42
2023-02-14T06:20:46.457Z,6.64
2023-02-14T06:23:12.886Z,7.50
2023-02-14T06:25:39.353Z,7.52
2023-02-14T06:28:06.605Z,7.40
2023-02-14T06:30:33.124Z,7.54
2023-02-14T06:32:59.715Z,7.51
2023-02-14T06:35:26.149Z,7.35
2023-02-14T06:37:52.633Z,7.54
2023-02-14T06:40:19.630Z,7.56
2023-02-14T06:42:46.413Z,7.58
2023-02-14T06:45:12.871Z,7.59
2023-02-14T06:47:39.806Z,7.37
2023-02-14T06:50:07.053Z,7.62
2023-02-14T06:52:34.208Z,7.64
2023-02-14T06:55:00.679Z,7.47
2023-02-14T06:57:27.354Z,7.66
2023-02-14T06:59:53.885Z,7.70
2023-02-14T07:02:21.776Z,7.40
2023-02-14T07:04:50.029Z,7.75
2023-02-14T07:07:16.499Z,7.63
2023-02-14T07:09:42.867Z,7.77
2023-02-14T07:12:09.335Z,7.76
2023-02-14T07:14:35.778Z,7.78
2023-02-14T07:17:02.395Z,7.81
2023-02-14T07:19:28.924Z,7.86
2023-02-14T07:21:55.420Z,7.78
2023-02-14T07:24:21.888Z,7.86
2023-02-14T07:26:48.363Z,7.86
2023-02-14T07:29:14.803Z,7.91
2023-02-14T07:31:41.313Z,7.86
2023-02-14T07:34:07.799Z,8.02
2023-02-14T07:36:34.335Z,8.06
2023-02-14T07:39:00.831Z,8.06
2023-02-14T07:41:27.329Z,8.13
2023-02-14T07:43:53.743Z,8.18
2023-02-14T07:46:20.210Z,8.20
2023-02-14T07:48:46.755Z,8.07
2023-02-14T07:51:13.230Z,8.30
2023-02-14T07:53:40.215Z,8.33
2023-02-14T07:56:06.695Z,8.36
2023-02-14T07:58:33.085Z,8.44
2023-02-14T08:01:00.004Z,8.34
2023-02-14T08:03:26.539Z,8.56
2023-02-14T08:05:57.196Z,8.60
2023-02-14T08:08:26.032Z,8.70
2023-02-14T08:10:52.440Z,8.77
2023-02-14T08:13:19.032Z,8.68
2023-02-14T08:16:03.958Z,8.91
2023-02-14T08:18:40.853Z,8.99
2023-02-14T08:21:09.906Z,8.99
2023-02-14T08:23:37.228Z,8.88
2023-02-14T08:26:03.797Z,9.15
2023-02-14T08:28:32.297Z,9.13
2023-02-14T08:30:59.166Z,9.17
2023-02-14T08:33:25.918Z,9.12
2023-02-14T08:35:52.720Z,9.02
2023-02-14T08:38:19.434Z,9.00
2023-02-14T08:40:46.146Z,9.02
2023-02-14T08:43:12.976Z,9.04
2023-02-14T08:45:39.978Z,9.04
2023-02-14T08:48:08.963Z,9.03
2023-02-14T08:50:36.512Z,9.04
2023-02-14T08:53:09.368Z,8.82
2023-02-14T08:55:36.221Z,9.25
2023-02-14T08:58:03.503Z,9.37
2023-02-14T09:00:30.965Z,9.41
2023-02-14T09:02:57.667Z,9.53
2023-02-14T09:05:24.150Z,9.58
2023-02-14T09:07:51.206Z,9.67
2023-02-14T09:10:18.625Z,9.76
2023-02-14T09:12:45.696Z,9.81
2023-02-14T09:15:12.349Z,10.16
2023-02-14T09:17:39.353Z,10.11
2023-02-14T09:20:07.605Z,10.33
2023-02-14T09:22:34.579Z,10.50
2023-02-14T09:25:01.256Z,10.68
2023-02-14T09:27:27.941Z,10.78
2023-02-14T09:29:54.794Z,10.84
2023-02-14T09:32:21.377Z,10.49
2023-02-14T09:35:06.515Z,10.92
2023-02-14T09:37:51.220Z,11.04
2023-02-14T09:40:19.381Z,11.20
2023-02-14T09:42:49.981Z,11.31
2023-02-14T09:45:24.048Z,11.21
2023-02-14T09:47:57.319Z,11.50
2023-02-14T09:50:40.311Z,11.63
2023-02-14T09:53:16.145Z,11.53
2023-02-14T09:55:53.934Z,11.88
2023-02-14T09:58:34.174Z,12.00
2023-02-14T10:01:03.808Z,12.30
2023-02-14T10:03:51.542Z,12.33
2023-02-14T10:06:20.990Z,12.42
2023-02-14T10:09:01.849Z,12.69
2023-02-14T10:11:28.765Z,12.50
2023-02-14T10:13:59.368Z,12.85
2023-02-14T10:16:34.178Z,13.33
2023-02-14T10:19:19.706Z,13.56
2023-02-14T10:21:53.915Z,13.79
2023-02-14T10:24:27.528Z,13.94
2023-02-14T10:27:02.314Z,14.20
2023-02-14T10:29:29.047Z,14.35
2023-02-14T10:32:01.193Z,14.53
2023-02-14T10:34:47.994Z,14.77
2023-02-14T10:37:36.265Z,14.97
2023-02-14T10:40:22.476Z,15.14
2023-02-14T10:43:01.033Z,15.29
2023-02-14T10:45:45.431Z,15.10
2023-02-14T10:48:44.701Z,15.67
2023-02-14T10:51:15.101Z,15.72
2023-02-14T10:54:17.429Z,15.90
2023-02-14T10:57:20.629Z,16.09
2023-02-14T11:00:01.053Z,16.06
2023-02-14T11:02:50.476Z,15.93
2023-02-14T11:05:27.435Z,16.12
2023-02-14T11:07:53.943Z,16.03
2023-02-14T11:10:25.783Z,15.98
2023-02-14T11:12:52.244Z,15.89
2023-02-14T11:15:30.762Z,15.99
2023-02-14T11:18:21.733Z,16.01
2023-02-14T11:21:17.894Z,16.21
2023-02-14T11:23:46.501Z,16.13
2023-02-14T11:26:26.365Z,16.35
2023-02-14T11:28:55.273Z,16.13
2023-02-14T11:31:27.047Z,16.44
2023-02-14T11:33:54.335Z,16.51
2023-02-14T11:36:21.275Z,16.22
2023-02-14T11:39:15.329Z,16.45
2023-02-14T11:41:53.398Z,16.50
2023-02-14T11:44:26.080Z,16.25
2023-02-14T11:46:54.847Z,15.97
2023-02-14T11:49:32.624Z,16.43
2023-02-14T11:52:10.333Z,16.33
2023-02-14T11:54:40.047Z,16.43
2023-02-14T11:57:21.607Z,16.60
2023-02-14T11:59:52.769Z,16.58
2023-02-14T12:02:28.002Z,16.69
2023-02-14T12:05:01.601Z,16.79
2023-02-14T12:07:42.890Z,16.81
2023-02-14T12:10:18.357Z,17.00
2023-02-14T12:12:51.146Z,17.08
2023-02-14T12:15:42.504Z,17.25
2023-02-14T12:18:30.168Z,17.14
2023-02-14T12:21:00.001Z,17.37
2023-02-14T12:23:26.669Z,17.67
2023-02-14T12:26:01.829Z,17.53
2023-02-14T12:28:34.726Z,17.53
2023-02-14T12:31:01.634Z,17.54
2023-02-14T12:33:28.465Z,17.57
2023-02-14T12:36:06.930Z,17.62
2023-02-14T12:38:56.304Z,17.65
2023-02-14T12:41:44.321Z,17.79
2023-02-14T12:44:25.663Z,17.75
2023-02-14T12:47:04.570Z,17.75
2023-02-14T12:49:49.425Z,17.82
2023-02-14T12:52:43.779Z,17.88
2023-02-14T12:55:40.771Z,17.90
2023-02-14T12:58:07.177Z,17.81
2023-02-14T13:01:07.999Z,17.73
2023-02-14T13:03:49.518Z,17.82
2023-02-14T13:06:42.181Z,17.67
2023-02-14T13:09:33.656Z,17.65
2023-02-14T13:12:13.238Z,17.49
2023-02-14T13:15:07.124Z,17.55
2023-02-14T13:17:55.632Z,17.47
2023-02-14T13:20:40.335Z,17.38
2023-02-14T13:23:15.605Z,17.31
2023-02-14T13:25:49.981Z,17.31
2023-02-14T13:28:18.566Z,17.16
2023-02-14T13:30:45.033Z,17.24
2023-02-14T13:33:29.283Z,17.31
2023-02-14T13:36:01.353Z,17.27
2023-02-14T13:38:31.696Z,17.28
2023-02-14T13:41:01.309Z,17.14
2023-02-14T13:43:48.131Z,17.49
2023-02-14T13:46:17.736Z,17.34
2023-02-14T13:49:15.327Z,17.42
2023-02-14T13:51:48.887Z,17.52
2023-02-14T13:54:31.129Z,17.55
2023-02-14T13:56:59.857Z,17.46
2023-02-14T13:59:33.901Z,17.61
2023-02-14T14:02:30.055Z,17.69
2023-02-14T14:04:56.901Z,17.61
2023-02-14T14:07:29.946Z,17.70
2023-02-14T14:09:59.192Z,17.75
2023-02-14T14:12:28.644Z,17.80
2023-02-14T14:15:07.965Z,17.82
2023-02-14T14:17:47.278Z,17.73
2023-02-14T14:20:16.584Z,17.80
2023-02-14T14:22:57.095Z,17.80
2023-02-14T14:25:37.806Z,17.77
2023-02-14T14:28:11.406Z,17.74
2023-02-14T14:30:38.704Z,17.51
2023-02-14T14:33:32.553Z,17.62
2023-02-14T14:36:08.336Z,17.62
2023-02-14T14:38:46.077Z,17.53
2023-02-14T14:41:12.686Z,17.41
2023-02-14T14:43:40.835Z,17.39
2023-02-14T14:46:15.825Z,17.36
2023-02-14T14:48:51.396Z,17.23
2023-02-14T14:51:28.476Z,17.27
2023-02-14T14:54:07.342Z,17.07
2023-02-14T14:56:40.439Z,17.23
2023-02-14T14:59:29.076Z,17.26
2023-02-14T15:01:56.008Z,17.16
2023-02-14T15:04:28.543Z,17.13
2023-02-14T15:06:57.223Z,16.91
2023-02-14T15:09:32.162Z,17.01
2023-02-14T15:12:24.766Z,16.98
2023-02-14T15:14:54.630Z,16.67
2023-02-14T15:17:25.648Z,16.43
2023-02-14T15:19:56.334Z,16.79
2023-02-14T15:22:26.760Z,16.72
2023-02-14T15:24:53.538Z,16.56
2023-02-14T15:27:23.574Z,16.51
2023-02-14T15:30:06.590Z,16.40
2023-02-14T15:32:47.169Z,16.24
2023-02-14T15:35:21.881Z,16.10
2023-02-14T15:37:50.286Z,15.79
2023-02-14T15:40:20.647Z,15.62
2023-02-14T15:42:48.775Z,15.17
2023-02-14T15:45:23.656Z,15.05
2023-02-14T15:47:53.876Z,14.78
2023-02-14T15:50:24.224Z,14.76
2023-02-14T15:52:53.205Z,14.31
2023-02-14T15:55:25.377Z,13.76
2023-02-14T15:58:12.451Z,13.80
2023-02-14T16:00:38.991Z,13.52
2023-02-14T16:03:10.672Z,13.20
2023-02-14T16:05:37.175Z,13.07
2023-02-14T16:08:03.631Z,12.88
2023-02-14T16:10:32.937Z,12.66
2023-02-14T16:13:06.423Z,12.52
2023-02-14T16:15:36.578Z,12.28
2023-02-14T16:18:08.335Z,12.29
2023-02-14T16:20:42.072Z,11.79
2023-02-14T16:23:27.193Z,11.83
2023-02-14T16:25:54.727Z,11.42
2023-02-14T16:28:21.376Z,11.46
2023-02-14T16:30:54.435Z,11.13
2023-02-14T16:33:34.086Z,11.14
2023-02-14T16:36:23.654Z,11.00
2023-02-14T16:38:50.732Z,10.80
2023-02-14T16:41:22.667Z,10.66
2023-02-14T16:43:49.163Z,10.32
2023-02-14T16:46:20.505Z,10.31
2023-02-14T16:48:51.688Z,10.23
2023-02-14T16:51:21.482Z,10.10
2023-02-14T16:53:49.683Z,9.84
2023-02-14T16:56:33.377Z,9.87
2023-02-14T16:59:00.103Z,9.65
2023-02-14T17:01:26.561Z,9.59
2023-02-14T17:03:53.050Z,9.42
2023-02-14T17:06:23.274Z,9.41
2023-02-14T17:08:51.105Z,9.45
2023-02-14T17:11:18.193Z,9.24
2023-02-14T17:13:46.743Z,9.13
2023-02-14T17:16:15.628Z,8.96
2023-02-14T17:18:47.511Z,8.91
2023-02-14T17:21:15.092Z,8.87
2023-02-14T17:23:41.534Z,8.71
2023-02-14T17:26:08.014Z,8.76
2023-02-14T17:28:34.487Z,8.47
2023-02-14T17:31:01.203Z,8.59
2023-02-14T17:33:30.321Z,8.50
2023-02-14T17:36:03.883Z,8.49
2023-02-14T17:38:31.108Z,8.41
2023-02-14T17:40:57.548Z,8.34
2023-02-14T17:43:24.161Z,8.28
2023-02-14T17:45:50.546Z,8.15
2023-02-14T17:48:17.245Z,8.06
2023-02-14T17:50:43.614Z,7.97
2023-02-14T17:53:11.335Z,8.02
2023-02-14T17:55:37.818Z,7.96
2023-02-14T17:58:04.233Z,7.72
2023-02-14T18:00:30.616Z,7.85
2023-02-14T18:02:57.465Z,7.72
2023-02-14T18:05:24.410Z,7.74
2023-02-14T18:07:51.750Z,7.64
2023-02-14T18:10:18.261Z,7.60
2023-02-14T18:12:44.629Z,7.62
2023-02-14T18:15:11.098Z,7.54
2023-02-14T18:17:37.538Z,7.54
2023-02-14T18:20:05.277Z,7.47
2023-02-14T18:22:32.285Z,7.46
2023-02-14T18:24:59.097Z,7.26
2023-02-14T18:27:26.273Z,7.37
2023-02-14T18:29:52.780Z,7.28
2023-02-14T18:32:19.210Z,7.27
2023-02-14T18:34:45.671Z,7.06
2023-02-14T18:37:13.701Z,7.17
2023-02-14T18:39:40.282Z,7.14
2023-02-14T18:42:06.834Z,7.13
2023-02-14T18:44:33.467Z,6.97
2023-02-14T18:47:01.360Z,7.07
2023-02-14T18:49:27.900Z,7.05
2023-02-14T18:51:54.932Z,7.08
2023-02-14T18:54:21.324Z,7.21
2023-02-14T18:56:47.782Z,7.24
2023-02-14T18:59:14.286Z,7.27
2023-02-14T19:01:45.561Z,7.30
2023-02-14T19:04:12.883Z,7.16
2023-02-14T19:06:41.070Z,7.32
2023-02-14T19:09:11.077Z,7.44
2023-02-14T19:11:37.958Z,7.42
2023-02-14T19:14:09.996Z,7.43
2023-02-14T19:16:50.348Z,7.55
2023-02-14T19:19:17.796Z,7.58
2023-02-14T19:21:44.242Z,7.60
2023-02-14T19:24:11.573Z,7.36
2023-02-14T19:26:40.480Z,7.65
2023-02-14T19:29:10.656Z,7.68
2023-02-14T19:31:41.643Z,7.72
2023-02-14T19:34:14.553Z,7.75
2023-02-14T19:36:40.934Z,7.68
2023-02-14T19:39:07.578Z,7.78
2023-02-14T19:41:34.583Z,7.75
2023-02-14T19:44:04.653Z,7.76
2023-02-14T19:46:39.079Z,7.73
2023-02-14T19:49:05.928Z,7.76
2023-02-14T19:51:35.860Z,7.46
2023-02-14T19:54:09.637Z,7.69
2023-02-14T19:56:38.240Z,7.65
2023-02-14T19:59:09.174Z,7.59
2023-02-14T20:01:36.210Z,7.53
2023-02-14T20:04:03.304Z,7.41
2023-02-14T20:06:29.696Z,7.41
2023-02-14T20:08:56.382Z,7.31
2023-02-14T20:11:40.090Z,7.34
2023-02-14T20:14:08.003Z,7.29
2023-02-14T20:16:36.496Z,7.25
2023-02-14T20:19:06.368Z,6.94
2023-02-14T20:21:32.764Z,7.16
2023-02-14T20:24:03.822Z,7.11
2023-02-14T20:26:32.194Z,7.06
2023-02-14T20:29:00.748Z,7.02
2023-02-14T20:31:27.314Z,7.00
2023-02-14T20:33:55.332Z,7.00
2023-02-14T20:36:21.742Z,6.99
2023-02-14T20:38:49.046Z,6.94
2023-02-14T20:41:18.308Z,6.91
2023-02-14T20:43:44.781Z,6.93
2023-02-14T20:46:11.237Z,6.85
2023-02-14T20:48:38.061Z,6.90
2023-02-14T20:51:13.332Z,6.90
2023-02-14T20:53:41.176Z,6.87
2023-02-14T20:56:08.079Z,6.58
2023-02-14T20:58:36.529Z,6.79
2023-02-14T21:01:07.532Z,6.79
2023-02-14T21:03:35.882Z,6.74
2023-02-14T21:06:06.798Z,6.69
2023-02-14T21:08:34.312Z,6.61
2023-02-14T21:11:01.279Z,6.44
2023-02-14T21:13:27.942Z,6.46
2023-02-14T21:15:54.634Z,6.39
2023-02-14T21:18:21.613Z,6.39
2023-02-14T21:20:48.055Z,6.33
2023-02-14T21:23:14.514Z,6.30
2023-02-14T21:25:40.983Z,6.24
2023-02-14T21:28:07.375Z,6.16
2023-02-14T21:30:33.862Z,6.10
2023-02-14T21:33:00.223Z,5.83
2023-02-14T21:35:26.825Z,5.76
2023-02-14T21:37:53.230Z,5.69
2023-02-14T21:40:19.775Z,5.73
2023-02-14T21:42:46.223Z,5.77
2023-02-14T21:45:32.194Z,5.69
2023-02-14T21:48:17.150Z,5.62
2023-02-14T21:50:43.660Z,5.57
2023-02-14T21:53:10.230Z,5.28
2023-02-14T21:55:38.424Z,5.16
2023-02-14T21:58:04.897Z,5.36
2023-02-14T22:00:31.328Z,5.36
2023-02-14T22:02:57.795Z,5.33
2023-02-14T22:05:25.322Z,5.28
2023-02-14T22:07:51.758Z,5.24
2023-02-14T22:10:18.260Z,5.12
2023-02-14T22:12:44.674Z,5.10
2023-02-14T22:15:11.238Z,5.06
2023-02-14T22:17:38.366Z,5.05
2023-02-14T22:20:06.472Z,4.86
2023-02-14T22:22:34.587Z,4.97
2023-02-14T22:25:01.098Z,4.85
2023-02-14T22:27:27.604Z,4.88
2023-02-14T22:29:54.004Z,4.77
2023-02-14T22:32:20.479Z,4.76
2023-02-14T22:34:47.060Z,4.71
2023-02-14T22:37:13.462Z,4.39
2023-02-14T22:39:39.892Z,4.68
2023-02-14T22:42:06.845Z,4.68
2023-02-14T22:44:33.341Z,4.69
2023-02-14T22:47:01.205Z,4.66
2023-02-14T22:49:27.662Z,4.64
2023-02-14T22:51:54.071Z,4.78
2023-02-14T22:54:20.486Z,4.80
2023-02-14T22:56:49.039Z,4.87
2023-02-14T22:59:23.891Z,4.90
2023-02-14T23:01:52.380Z,4.96
2023-02-14T23:04:22.096Z,5.03
2023-02-14T23:06:49.195Z,4.90
2023-02-14T23:09:15.916Z,5.11
2023-02-14T23:11:43.760Z,5.17
2023-02-14T23:14:33.016Z,5.20
2023-02-14T23:17:17.357Z,4.99
2023-02-14T23:20:03.529Z,5.25
2023-02-14T23:22:37.576Z,5.27
2023-02-14T23:25:10.057Z,5.21
2023-02-14T23:27:44.071Z,5.29
2023-02-14T23:30:14.065Z,5.25
2023-02-14T23:32:40.782Z,5.33
2023-02-14T23:35:07.780Z,5.22
2023-02-14T23:37:34.299Z,5.25
2023-02-14T23:40:00.768Z,5.41
2023-02-14T23:42:28.158Z,5.44
2023-02-14T23:44:54.722Z,5.47
2023-02-14T23:47:21.139Z,5.51
2023-02-14T23:49:47.610Z,5.25
2023-02-14T23:52:14.165Z,5.32
2023-02-14T23:54:40.630Z,5.58
2023-02-14T23:57:08.055Z,5.59
2023-02-14T23:59:34.737Z,5.62
